Denning, Texas
Current Conditions -  °F | °C
As of 4:55 PM on Friday 28 Nov 2014 (Local Time) from KOCH Reporting Station
Broken Clouds Broken Clouds  
Wind Chill: 64°   Ceiling: 4800
Heat Index: 64°   Visibility: 10mi
Dew Point: 48°   Wind: 9mph
Humidity: 56%   Direction: 190°S
Pressure: 30.16"   Gusts: NA
Location:  31.516°N, 94.1687°W
Report Text: KOCH 282255Z AUTO 19008KT 10SM BKN048 18/09 A3016 RMK AO1
Loading
Personal Weather Stations






























Interactive Weather Map New forecast layout! Learn more

10-Day Weather Forecast

Advertisements
Track Severe Weather on mobile